Earl, North Carolina
Current Conditions -  °F | °C
As of 12:35 AM on Thursday 23 Oct 2014 (Local Time) from KEHO Reporting Station
Clear Clear  
Wind Chill: 42°   Ceiling: Unl
Heat Index: 42°   Visibility: 10mi
Dew Point: 38°   Wind: 3mph
Humidity: 83%   Direction: 250°WSW
Pressure: 30.11"   Gusts: NA
Location:  35.19°N, 81.53°W
Report Text: KEHO 230435Z AUTO 25003KT 10SM CLR 06/03 A3011 RMK AO2 T00580031
Loading
Personal Weather Stations






























Interactive Weather Map
Tropical Storm Tracking
New forecast layout! Learn more

10-Day Weather Forecast

Advertisements
Track Severe Weather on mobile